Time;durP1;ratioP1;P1;durP2;ratioP2;P2;SDS_P1;SDS_P2;PMS_P1;PMS_P2;Temp;Humidity;BMP_temperature;BMP_pressure;BME280_temperature;BME280_humidity;BME280_pressure;Samples;Min_cycle;Max_cycle;Signal;HPM_P1;HPM_P2
2022/02/15 00:01:40;;;;;;;1999.90;999.90;;;;;;;3.06;79.53;163213.53;5011759;28;20147;-68
2022/02/15 00:04:07;;;;;;;1999.90;999.90;;;;;;;3.17;79.51;163242.31;5012602;28;20140;-69
2022/02/15 00:06:34;;;;;;;1999.90;999.90;;;;;;;3.11;79.57;163227.28;5022054;28;20155;-69
2022/02/15 00:09:01;;;;;;;1999.90;999.90;;;;;;;3.11;79.97;163225.88;5009555;28;20069;-68
2022/02/15 00:11:27;;;;;;;1999.90;999.90;;;;;;;3.06;80.63;163212.19;5015722;28;20435;-68
2022/02/15 00:13:54;;;;;;;1999.90;999.90;;;;;;;3.06;80.55;163212.19;5016709;28;20077;-68
2022/02/15 00:16:20;;;;;;;1999.90;999.90;;;;;;;3.07;80.79;163216.28;5055313;28;20082;-68
2022/02/15 00:18:47;;;;;;;1999.90;999.90;;;;;;;3.10;80.26;163223.16;5023810;28;20502;-69
2022/02/15 00:21:13;;;;;;;1999.90;999.90;;;;;;;3.01;80.42;163199.88;5019708;28;20130;-68
2022/02/15 00:23:40;;;;;;;1999.90;999.90;;;;;;;2.96;80.82;163187.53;5022559;28;20398;-68
2022/02/15 00:26:06;;;;;;;1999.90;999.90;;;;;;;2.97;80.38;163190.25;5014681;28;20085;-68
2022/02/15 00:28:32;;;;;;;1999.90;999.90;;;;;;;2.90;80.92;163169.69;5027106;28;20058;-68
2022/02/15 00:30:59;;;;;;;1999.90;999.90;;;;;;;2.88;81.01;163164.25;5021197;28;20516;-68
2022/02/15 00:33:25;;;;;;;1999.90;999.90;;;;;;;2.85;81.25;163157.38;5013496;28;20093;-68
2022/02/15 00:35:52;;;;;;;1999.90;999.90;;;;;;;2.86;81.07;163158.72;5023034;28;20081;-68
2022/02/15 00:38:18;;;;;;;1999.90;999.90;;;;;;;2.79;81.37;163142.28;5019315;28;20332;-68
2022/02/15 00:40:45;;;;;;;1999.90;999.90;;;;;;;2.86;80.99;163160.13;5028890;28;20081;-68
2022/02/15 00:43:11;;;;;;;1999.90;999.90;;;;;;;2.78;80.94;163138.19;5022449;28;20041;-69
2022/02/15 00:45:38;;;;;;;1999.90;999.90;;;;;;;2.72;81.91;163123.09;5015828;28;20458;-68
2022/02/15 00:48:04;;;;;;;1999.90;999.90;;;;;;;2.29;83.65;163008.06;5013330;28;20085;-69
2022/02/15 00:50:31;;;;;;;1999.90;999.90;;;;;;;2.34;84.24;163021.78;5021362;28;20112;-68
2022/02/15 00:52:57;;;;;;;1999.90;999.90;;;;;;;2.40;84.22;163038.22;5021792;28;20041;-68
2022/02/15 00:55:24;;;;;;;1999.90;999.90;;;;;;;2.51;84.07;163065.59;5030353;28;20085;-68
2022/02/15 00:57:50;;;;;;;1999.90;999.90;;;;;;;2.59;83.33;163087.50;5012438;28;20445;-68
2022/02/15 01:00:19;;;;;;;1999.90;999.90;;;;;;;2.57;82.43;163082.03;5014141;28;20041;-68
2022/02/15 01:02:45;;;;;;;1999.90;999.90;;;;;;;2.51;82.59;163066.97;5014854;28;20461;-68
2022/02/15 01:05:12;;;;;;;1999.90;999.90;;;;;;;2.52;82.43;163068.38;5023973;28;20184;-68
2022/02/15 01:07:39;;;;;;;1999.90;999.90;;;;;;;2.52;82.14;163068.38;5022393;28;20049;-68
2022/02/15 01:10:06;;;;;;;1999.90;999.90;;;;;;;2.56;82.01;163080.69;5017208;28;20339;-68
2022/02/15 01:12:32;;;;;;;1999.90;999.90;;;;;;;2.54;82.04;163073.81;5021866;28;20387;-68
2022/02/15 01:14:59;;;;;;;1999.90;999.90;;;;;;;2.45;81.87;163050.53;5018403;28;20131;-68
2022/02/15 01:17:26;;;;;;;1999.90;999.90;;;;;;;1.96;83.29;162920.44;5022031;28;20099;-68
2022/02/15 01:19:52;;;;;;;1999.90;999.90;;;;;;;1.52;85.86;162804.09;5019011;28;20064;-68
2022/02/15 01:22:19;;;;;;;1999.90;999.90;;;;;;;1.18;89.11;162713.78;5028269;28;20084;-68
2022/02/15 01:24:45;;;;;;;1999.90;999.90;;;;;;;0.79;91.68;162608.41;5025756;28;20053;-68
2022/02/15 01:27:12;;;;;;;1999.90;999.90;;;;;;;1.17;92.28;162709.66;5017011;28;20121;-68
2022/02/15 01:29:38;;;;;;;1999.90;999.90;;;;;;;1.83;88.67;162884.84;5018510;28;20052;-68
2022/02/15 01:32:05;;;;;;;1999.90;999.90;;;;;;;2.17;86.88;162975.22;5018364;28;20042;-68
2022/02/15 01:34:32;;;;;;;1999.90;999.90;;;;;;;2.37;85.95;163030.00;4998929;28;20045;-68
2022/02/15 01:36:58;;;;;;;1999.90;999.90;;;;;;;2.42;85.42;163043.66;5019529;28;20084;-68
2022/02/15 01:39:25;;;;;;;1999.90;999.90;;;;;;;2.50;84.63;163062.84;5020202;28;20099;-68
2022/02/15 01:41:53;;;;;;;1999.90;999.90;;;;;;;2.44;85.10;163049.19;5013205;28;20078;-68
2022/02/15 01:44:20;;;;;;;1999.90;999.90;;;;;;;2.37;85.20;163030.00;5018094;28;20112;-68
2022/02/15 01:46:46;;;;;;;1999.90;999.90;;;;;;;2.50;84.76;163064.25;5021685;28;20112;-68
2022/02/15 01:49:13;;;;;;;1999.90;999.90;;;;;;;2.52;84.57;163068.38;5019428;28;20045;-68
2022/02/15 01:51:39;;;;;;;1999.90;999.90;;;;;;;2.56;85.49;163079.28;5027932;28;20077;-68
2022/02/15 01:54:06;;;;;;;1999.90;999.90;;;;;;;2.65;85.83;163103.97;5015939;28;20049;-68
2022/02/15 01:56:32;;;;;;;1999.90;999.90;;;;;;;2.57;85.31;163083.38;5020728;28;20049;-68
2022/02/15 01:59:02;;;;;;;1999.90;999.90;;;;;;;2.38;85.70;163032.75;5018259;28;20498;-68
2022/02/15 02:01:29;;;;;;;1999.90;999.90;;;;;;;2.37;85.32;163030.00;5020369;28;20478;-68
2022/02/15 02:03:55;;;;;;;1999.90;999.90;;;;;;;2.49;85.14;163061.50;5017984;28;20038;-68
2022/02/15 02:06:22;;;;;;;1999.90;999.90;;;;;;;2.36;85.74;163025.88;5027149;28;20049;-68
2022/02/15 02:08:48;;;;;;;1999.90;999.90;;;;;;;2.47;84.77;163057.38;5018401;28;20532;-68
2022/02/15 02:11:15;;;;;;;1999.90;999.90;;;;;;;2.55;84.75;163077.94;5019953;28;20436;-68
2022/02/15 02:13:41;;;;;;;1999.90;999.90;;;;;;;2.62;84.62;163095.72;5015254;28;20466;-67
2022/02/15 02:16:08;;;;;;;1999.90;999.90;;;;;;;2.72;84.14;163121.75;5017974;28;20085;-67
2022/02/15 02:18:34;;;;;;;1999.90;999.90;;;;;;;2.61;86.51;163094.34;5024575;28;20085;-67
2022/02/15 02:21:05;;;;;;;1999.90;999.90;;;;;;;2.43;87.76;163046.41;5017692;28;20089;-67
2022/02/15 02:23:32;;;;;;;1999.90;999.90;;;;;;;2.44;88.84;163047.78;5023459;28;20068;-67
2022/02/15 02:26:01;;;;;;;1999.90;999.90;;;;;;;1.89;89.73;162901.25;5017673;28;20072;-68
2022/02/15 02:28:27;;;;;;;1999.90;999.90;;;;;;;1.93;91.51;162913.56;5023783;28;20129;-67
2022/02/15 02:30:54;;;;;;;1999.90;999.90;;;;;;;2.08;89.85;162953.31;5016300;28;20405;-67
2022/02/15 02:33:20;;;;;;;1999.90;999.90;;;;;;;2.30;88.82;163010.81;5014353;28;20057;-67
2022/02/15 02:35:57;;;;;;;1999.90;999.90;;;;;;;2.18;88.87;162979.31;5022975;28;20152;-67
2022/02/15 02:38:24;;;;;;;1999.90;999.90;;;;;;;1.56;92.98;162813.66;5017600;28;20045;-67
2022/02/15 02:40:50;;;;;;;1999.90;999.90;;;;;;;1.97;91.94;162923.19;5020927;28;20085;-67
2022/02/15 02:43:16;;;;;;;1999.90;999.90;;;;;;;1.89;90.48;162901.25;5013348;28;20046;-67
2022/02/15 02:45:43;;;;;;;1999.90;999.90;;;;;;;1.94;90.52;162914.97;5013994;28;20046;-67
2022/02/15 02:48:09;;;;;;;1999.90;999.90;;;;;;;1.95;90.79;162917.72;5010155;28;20351;-68
2022/02/15 02:50:36;;;;;;;1999.90;999.90;;;;;;;2.14;92.33;162967.00;5020651;28;20382;-67
2022/02/15 02:53:09;;;;;;;1999.90;999.90;;;;;;;2.04;91.41;162940.97;5014145;28;20434;-67
2022/02/15 02:55:36;;;;;;;1999.90;999.90;;;;;;;1.70;92.53;162852.00;5022690;28;20046;-67
2022/02/15 02:58:02;;;;;;;1999.90;999.90;;;;;;;1.91;92.49;162906.78;5019114;28;20095;-67
2022/02/15 03:00:29;;;;;;;1999.90;999.90;;;;;;;1.70;96.59;162852.00;5013236;28;20038;-67
2022/02/15 03:02:57;;;;;;;1999.90;999.90;;;;;;;2.11;96.12;162961.53;5022906;28;20051;-67
2022/02/15 03:05:23;;;;;;;1999.90;999.90;;;;;;;2.73;93.07;163124.50;5014299;28;20409;-69
2022/02/15 03:07:49;;;;;;;1999.90;999.90;;;;;;;2.89;90.94;163168.34;5011821;28;20112;-69
2022/02/15 03:10:16;;;;;;;1999.90;999.90;;;;;;;2.65;90.22;163103.97;5017231;28;20139;-68
2022/02/15 03:12:42;;;;;;;1999.90;999.90;;;;;;;2.86;89.16;163158.72;5023405;28;20085;-68
2022/02/15 03:15:09;;;;;;;1999.90;999.90;;;;;;;2.80;88.75;163143.69;5018908;28;20049;-68
2022/02/15 03:17:36;;;;;;;1999.90;999.90;;;;;;;2.64;90.70;163101.22;5023668;28;20465;-68
2022/02/15 03:20:22;;;;;;;1999.90;999.90;;;;;;;2.63;92.54;163098.47;5011686;28;20058;-68
2022/02/15 03:22:49;;;;;;;1999.90;999.90;;;;;;;2.46;95.64;163054.63;5016131;28;20065;-68
2022/02/15 03:25:15;;;;;;;1999.90;999.90;;;;;;;2.50;93.21;163062.84;5017799;28;20075;-68
2022/02/15 03:27:42;;;;;;;1999.90;999.90;;;;;;;2.63;91.77;163098.47;5017741;28;20084;-68
2022/02/15 03:30:09;;;;;;;1999.90;999.90;;;;;;;2.92;90.09;163175.22;5014598;28;20073;-68
2022/02/15 03:32:36;;;;;;;1999.90;999.90;;;;;;;2.70;90.03;163117.66;5010900;28;20081;-68
2022/02/15 03:35:03;;;;;;;1999.90;999.90;;;;;;;2.89;90.08;163168.34;5023247;28;20053;-68
2022/02/15 03:37:30;;;;;;;1999.90;999.90;;;;;;;2.86;91.66;163158.72;5018440;28;20419;-68
2022/02/15 03:39:56;;;;;;;1999.90;999.90;;;;;;;3.01;92.35;163199.88;5018592;28;20077;-69
2022/02/15 03:45:08;;;;;;;1999.90;999.90;;;;;;;3.29;91.60;163273.81;5010517;28;20053;-68
2022/02/15 03:47:34;;;;;;;1999.90;999.90;;;;;;;3.45;91.63;163317.69;5015935;28;20088;-68
2022/02/15 03:50:01;;;;;;;1999.90;999.90;;;;;;;3.52;90.68;163336.88;5026320;28;20376;-68
2022/02/15 03:52:29;;;;;;;1999.90;999.90;;;;;;;3.38;90.87;163298.53;5020199;28;20461;-68
2022/02/15 03:54:55;;;;;;;1999.90;999.90;;;;;;;3.45;91.22;163316.31;5022485;28;20390;-68
2022/02/15 03:57:22;;;;;;;1999.90;999.90;;;;;;;3.42;91.77;163309.47;5020706;28;20486;-69
2022/02/15 03:59:48;;;;;;;1999.90;999.90;;;;;;;3.60;91.75;163356.06;5027553;28;20439;-68
2022/02/15 04:02:15;;;;;;;1999.90;999.90;;;;;;;3.39;91.82;163299.88;5027985;28;20057;-68
2022/02/15 04:04:41;;;;;;;1999.90;999.90;;;;;;;3.82;90.38;163416.38;5019742;28;20083;-68
2022/02/15 04:07:08;;;;;;;1999.90;999.90;;;;;;;3.95;89.39;163449.31;5024052;28;20100;-68
2022/02/15 04:09:34;;;;;;;1999.90;999.90;;;;;;;3.70;90.78;163383.50;5021496;28;20046;-68
2022/02/15 04:12:01;;;;;;;1999.90;999.90;;;;;;;3.67;91.42;163375.28;5028578;28;20123;-68
2022/02/15 04:14:27;;;;;;;1999.90;999.90;;;;;;;3.83;90.69;163419.13;5023811;28;20096;-68
2022/02/15 04:16:54;;;;;;;1999.90;999.90;;;;;;;3.86;90.54;163426.00;5033398;28;20219;-68
2022/02/15 04:19:20;;;;;;;1999.90;999.90;;;;;;;3.76;91.27;163398.59;5028964;28;20103;-68
2022/02/15 04:21:46;;;;;;;1999.90;999.90;;;;;;;3.87;90.40;163430.13;5026505;28;20152;-68
2022/02/15 04:24:13;;;;;;;1999.90;999.90;;;;;;;3.97;90.23;163454.78;5026903;28;20050;-68
2022/02/15 04:26:40;;;;;;;1999.90;999.90;;;;;;;3.99;89.92;163460.25;5027666;28;20058;-68
2022/02/15 04:29:06;;;;;;;1999.90;999.90;;;;;;;4.00;89.87;163463.00;5022983;28;20426;-68
2022/02/15 04:31:33;;;;;;;1999.90;999.90;;;;;;;3.81;91.03;163413.66;5029627;28;20107;-68
2022/02/15 04:34:00;;;;;;;1999.90;999.90;;;;;;;3.88;90.96;163432.88;5026479;28;20053;-68
2022/02/15 04:36:27;;;;;;;1999.90;999.90;;;;;;;3.82;90.78;163416.38;5016336;28;20405;-68
2022/02/15 04:38:53;;;;;;;1999.90;999.90;;;;;;;3.57;92.12;163349.19;5022488;28;20041;-68
2022/02/15 04:41:20;;;;;;;1999.90;999.90;;;;;;;3.24;94.39;163260.16;5026485;28;20129;-69
2022/02/15 04:43:46;;;;;;;1999.90;999.90;;;;;;;3.34;95.31;163288.91;5018157;28;20454;-68
2022/02/15 04:46:13;;;;;;;1999.90;999.90;;;;;;;3.56;94.52;163346.50;5021740;28;20064;-68
2022/02/15 04:48:39;;;;;;;1999.90;999.90;;;;;;;3.86;93.10;163427.34;5022987;28;20058;-68
2022/02/15 04:51:06;;;;;;;1999.90;999.90;;;;;;;3.78;93.56;163404.03;5016379;28;20116;-68
2022/02/15 04:53:32;;;;;;;1999.90;999.90;;;;;;;3.87;93.35;163428.72;5022019;28;20053;-68
2022/02/15 04:56:02;;;;;;;1999.90;999.90;;;;;;;3.69;94.47;163380.72;5028836;28;20053;-68
2022/02/15 04:58:30;;;;;;;1999.90;999.90;;;;;;;3.51;96.40;163332.75;5027040;28;20056;-68
2022/02/15 05:00:56;;;;;;;1999.90;999.90;;;;;;;3.48;96.37;163325.94;5018229;28;20107;-68
2022/02/15 05:03:23;;;;;;;1999.90;999.90;;;;;;;3.56;96.82;163346.50;5025818;28;20073;-68
2022/02/15 05:05:49;;;;;;;1999.90;999.90;;;;;;;3.75;96.07;163395.81;5025425;28;20111;-68
2022/02/15 05:08:16;;;;;;;1999.90;999.90;;;;;;;3.94;94.72;163446.56;5027812;28;20060;-68
2022/02/15 05:10:42;;;;;;;1999.90;999.90;;;;;;;3.95;94.29;163449.31;5021741;28;20435;-68
2022/02/15 05:13:11;;;;;;;1999.90;999.90;;;;;;;4.01;94.45;163465.75;5016106;28;20741;-68
2022/02/15 05:15:38;;;;;;;1999.90;999.90;;;;;;;4.45;92.56;163583.72;5025934;28;20053;-68
2022/02/15 05:18:06;;;;;;;1999.90;999.90;;;;;;;4.66;90.86;163638.53;5017027;28;20061;-68
2022/02/15 05:20:33;;;;;;;1999.90;999.90;;;;;;;4.40;90.86;163571.31;5012492;28;20170;-68
2022/02/15 05:22:59;;;;;;;1999.90;999.90;;;;;;;4.34;90.50;163554.88;5017494;28;20049;-68
2022/02/15 05:25:26;;;;;;;1999.90;999.90;;;;;;;4.22;90.93;163521.97;5016253;28;20458;-68
2022/02/15 05:27:53;;;;;;;1999.90;999.90;;;;;;;4.41;90.41;163572.72;5014108;28;20451;-68
2022/02/15 05:30:20;;;;;;;1999.90;999.90;;;;;;;4.41;89.74;163572.72;5016219;28;20053;-68
2022/02/15 05:32:47;;;;;;;1999.90;999.90;;;;;;;4.50;88.68;163597.41;5012052;28;20103;-68
2022/02/15 05:35:13;;;;;;;1999.90;999.90;;;;;;;4.49;88.85;163593.28;5025057;28;20112;-68
2022/02/15 05:37:40;;;;;;;1999.90;999.90;;;;;;;4.41;88.91;163572.72;5016545;28;20057;-69
2022/02/15 05:40:08;;;;;;;1999.90;999.90;;;;;;;4.40;88.95;163569.97;5026740;28;20053;-68
2022/02/15 05:42:35;;;;;;;1999.90;999.90;;;;;;;4.45;88.38;163582.31;5020238;28;20272;-68
2022/02/15 05:45:02;;;;;;;1999.90;999.90;;;;;;;4.22;88.58;163521.97;5018329;28;20089;-68
2022/02/15 05:47:29;;;;;;;1999.90;999.90;;;;;;;4.30;88.92;163542.53;5022955;28;20077;-68
2022/02/15 05:52:41;;;;;;;1999.90;999.90;;;;;;;4.33;89.02;163550.75;5017904;28;20076;-68
2022/02/15 05:55:08;;;;;;;1999.90;999.90;;;;;;;4.00;90.78;163464.34;5013544;28;20124;-68
2022/02/15 05:57:34;;;;;;;1999.90;999.90;;;;;;;3.58;92.85;163351.97;5022604;28;20076;-68
2022/02/15 06:00:04;;;;;;;1999.90;999.90;;;;;;;3.61;93.64;163360.19;5018241;28;20096;-68
2022/02/15 06:02:31;;;;;;;1999.90;999.90;;;;;;;3.79;92.89;163408.16;5022742;28;20509;-68
2022/02/15 06:04:57;;;;;;;1999.90;999.90;;;;;;;3.68;93.46;163378.03;5016315;28;20564;-68
2022/02/15 06:07:24;;;;;;;1999.90;999.90;;;;;;;3.94;92.54;163447.91;5023116;28;20049;-68
2022/02/15 06:09:50;;;;;;;1999.90;999.90;;;;;;;4.04;92.29;163474.00;5018591;28;20083;-68
2022/02/15 06:12:17;;;;;;;1999.90;999.90;;;;;;;4.29;91.59;163541.19;5012242;28;20285;-68
2022/02/15 06:14:44;;;;;;;1999.90;999.90;;;;;;;4.22;92.40;163521.97;5018795;28;20045;-68
2022/02/15 06:17:10;;;;;;;1999.90;999.90;;;;;;;4.30;92.58;163542.53;5016353;28;20087;-68
2022/02/15 06:19:37;;;;;;;1999.90;999.90;;;;;;;4.46;91.99;163586.41;5019067;28;20050;-68
2022/02/15 06:22:04;;;;;;;1999.90;999.90;;;;;;;4.54;92.20;163606.97;5019015;28;20104;-68
2022/02/15 06:24:30;;;;;;;1999.90;999.90;;;;;;;4.65;92.00;163637.19;5012454;28;20411;-68
2022/02/15 06:27:01;;;;;;;1999.90;999.90;;;;;;;4.74;91.56;163660.50;5024264;28;20041;-68
2022/02/15 06:29:30;;;;;;;1999.90;999.90;;;;;;;4.59;92.19;163622.06;5019626;28;20049;-68
2022/02/15 06:31:57;;;;;;;1999.90;999.90;;;;;;;4.34;93.56;163554.88;5018740;28;20099;-68
2022/02/15 06:34:24;;;;;;;1999.90;999.90;;;;;;;4.37;94.41;163561.75;5018250;28;20057;-68
2022/02/15 06:36:54;;;;;;;1999.90;999.90;;;;;;;3.97;96.48;163454.78;5014058;28;20108;-68
2022/02/15 06:39:21;;;;;;;1999.90;999.90;;;;;;;4.10;98.04;163490.44;5024266;28;20053;-68
2022/02/15 06:41:47;;;;;;;1999.90;999.90;;;;;;;4.43;96.59;163578.19;5024853;28;20076;-68
2022/02/15 06:44:14;;;;;;;1999.90;999.90;;;;;;;4.40;95.83;163569.97;5024600;28;20085;-68
2022/02/15 06:46:41;;;;;;;1999.90;999.90;;;;;;;4.46;96.70;163586.41;5022345;28;20052;-68
2022/02/15 06:49:07;;;;;;;1999.90;999.90;;;;;;;4.80;95.20;163676.97;5026485;28;20434;-68
2022/02/15 06:51:34;;;;;;;1999.90;999.90;;;;;;;5.24;93.58;163794.97;5022886;28;20080;-68
2022/02/15 06:54:00;;;;;;;1999.90;999.90;;;;;;;5.42;91.73;163841.66;5019500;28;20064;-69
2022/02/15 06:56:27;;;;;;;1999.90;999.90;;;;;;;5.31;91.70;163812.78;5011346;28;20331;-68
2022/02/15 06:58:53;;;;;;;1999.90;999.90;;;;;;;5.04;93.31;163740.06;5022147;28;20046;-68
2022/02/15 07:01:20;;;;;;;1999.90;999.90;;;;;;;5.39;92.14;163833.38;5029069;28;20049;-68
2022/02/15 07:03:46;;;;;;;1999.90;999.90;;;;;;;4.84;94.02;163686.53;5012163;28;20092;-68
2022/02/15 07:06:13;;;;;;;1999.90;999.90;;;;;;;4.93;95.10;163712.63;5020419;28;20116;-69
2022/02/15 07:08:39;;;;;;;1999.90;999.90;;;;;;;5.22;93.81;163789.44;5019268;28;20390;-69
2022/02/15 07:11:06;;;;;;;1999.90;999.90;;;;;;;5.04;94.22;163740.06;5016716;28;20080;-69
2022/02/15 07:13:32;;;;;;;1999.90;999.90;;;;;;;5.40;93.56;163837.47;5018433;28;20108;-68
2022/02/15 07:15:59;;;;;;;1999.90;999.90;;;;;;;5.59;92.83;163888.28;5012538;28;20167;-68
2022/02/15 07:18:26;;;;;;;1999.90;999.90;;;;;;;5.23;94.31;163792.22;5015561;28;20046;-69
2022/02/15 07:20:52;;;;;;;1999.90;999.90;;;;;;;5.41;93.98;163840.25;5016485;28;20057;-68
2022/02/15 07:23:19;;;;;;;1999.90;999.90;;;;;;;5.81;92.41;163947.31;5018617;28;20053;-68
2022/02/15 07:25:46;;;;;;;1999.90;999.90;;;;;;;5.37;94.03;163827.88;5014754;28;20049;-69
2022/02/15 07:28:12;;;;;;;1999.90;999.90;;;;;;;5.27;94.64;163803.19;5012560;28;20049;-69
2022/02/15 07:30:38;;;;;;;1999.90;999.90;;;;;;;5.38;95.03;163830.66;5015789;28;20097;-68
2022/02/15 07:33:05;;;;;;;1999.90;999.90;;;;;;;5.28;95.32;163804.56;5011474;28;20131;-68
2022/02/15 07:35:31;;;;;;;1999.90;999.90;;;;;;;5.19;95.28;163781.22;5019053;28;20397;-69
2022/02/15 07:37:58;;;;;;;1999.90;999.90;;;;;;;5.37;95.41;163829.25;5021522;28;20076;-68
2022/02/15 07:40:25;;;;;;;1999.90;999.90;;;;;;;5.54;94.63;163873.16;5023978;28;20123;-69
2022/02/15 07:42:52;;;;;;;1999.90;999.90;;;;;;;5.52;94.45;163869.06;5027470;28;20510;-68
2022/02/15 07:45:19;;;;;;;1999.90;999.90;;;;;;;5.61;94.58;163892.38;5019981;28;20077;-68
2022/02/15 07:47:51;;;;;;;1999.90;999.90;;;;;;;5.66;93.77;163906.16;5017147;28;20103;-68
2022/02/15 07:50:20;;;;;;;1999.90;999.90;;;;;;;5.60;94.57;163891.03;5013038;28;20073;-68
2022/02/15 07:52:48;;;;;;;1999.90;999.90;;;;;;;5.55;94.66;163877.34;5013443;28;20045;-69
2022/02/15 07:55:14;;;;;;;1999.90;999.90;;;;;;;5.94;93.09;163980.25;5024136;28;20402;-68
2022/02/15 07:57:41;;;;;;;1999.90;999.90;;;;;;;5.91;92.66;163973.41;5017623;28;20401;-68
2022/02/15 08:00:08;;;;;;;1999.90;999.90;;;;;;;6.16;92.00;164039.34;5016774;28;20123;-68
2022/02/15 08:02:35;;;;;;;1999.90;999.90;;;;;;;6.03;92.44;164003.66;5019853;28;20230;-69
2022/02/15 08:05:01;;;;;;;1999.90;999.90;;;;;;;6.30;91.45;164077.81;5024011;28;20385;-68
2022/02/15 08:07:32;;;;;;;1999.90;999.90;;;;;;;6.79;89.98;164206.91;5016693;28;20049;-68
2022/02/15 08:09:59;;;;;;;1999.90;999.90;;;;;;;6.42;90.26;164109.41;5013791;28;20045;-68
2022/02/15 08:12:26;;;;;;;1999.90;999.90;;;;;;;6.13;91.54;164032.50;5010396;28;20049;-68
2022/02/15 08:14:52;;;;;;;1999.90;999.90;;;;;;;6.22;91.69;164055.81;5023481;28;20053;-69
2022/02/15 08:17:18;;;;;;;1999.90;999.90;;;;;;;6.22;91.09;164055.81;5020651;28;20100;-69
2022/02/15 08:19:45;;;;;;;1999.90;999.90;;;;;;;6.27;90.92;164068.22;5018277;28;20054;-69
2022/02/15 08:22:12;;;;;;;1999.90;999.90;;;;;;;6.41;91.37;164105.28;5011745;28;20082;-69
2022/02/15 08:24:40;;;;;;;1999.90;999.90;;;;;;;6.42;90.84;164109.41;5010455;28;20453;-69
2022/02/15 08:27:09;;;;;;;1999.90;999.90;;;;;;;6.20;91.01;164049.00;5055026;28;20086;-69
2022/02/15 08:29:35;;;;;;;1999.90;999.90;;;;;;;5.87;93.03;163961.06;5014771;28;20107;-69
2022/02/15 08:32:02;;;;;;;1999.90;999.90;;;;;;;5.97;92.19;163989.94;5015962;28;20053;-69
2022/02/15 08:34:28;;;;;;;1999.90;999.90;;;;;;;6.50;90.48;164130.00;5013039;28;20069;-69
2022/02/15 08:36:55;;;;;;;1999.90;999.90;;;;;;;6.37;90.57;164094.28;5024272;28;20290;-66
2022/02/15 08:39:22;;;;;;;1999.90;999.90;;;;;;;6.50;90.79;164130.00;5031442;28;20819;-66
2022/02/15 08:41:48;;;;;;;1999.90;999.90;;;;;;;6.29;91.41;164073.69;5027627;28;20142;-70
2022/02/15 08:44:15;;;;;;;1999.90;999.90;;;;;;;6.56;90.63;164146.47;5020059;28;20423;-68
2022/02/15 08:46:43;;;;;;;1999.90;999.90;;;;;;;6.61;90.18;164160.22;5025448;28;20054;-68
2022/02/15 08:49:09;;;;;;;1999.90;999.90;;;;;;;6.90;89.20;164237.16;5022611;28;20136;-68
2022/02/15 08:51:40;;;;;;;1999.90;999.90;;;;;;;7.02;88.79;164270.09;5019835;28;20050;-68
2022/02/15 08:54:06;;;;;;;1999.90;999.90;;;;;;;7.04;88.19;164275.63;5022153;28;20276;-68
2022/02/15 08:56:33;;;;;;;1999.90;999.90;;;;;;;7.25;87.32;164329.19;5019923;28;20089;-68
2022/02/15 08:58:59;;;;;;;1999.90;999.90;;;;;;;7.35;86.65;164356.69;5023035;28;20054;-69
2022/02/15 09:01:26;;;;;;;1999.90;999.90;;;;;;;7.23;86.48;164326.47;5024297;28;20438;-68
2022/02/15 09:03:53;;;;;;;1999.90;999.90;;;;;;;7.16;86.93;164305.81;5025927;28;20085;-69
2022/02/15 09:06:19;;;;;;;1999.90;999.90;;;;;;;7.39;85.86;164369.03;5019128;28;20054;-68
2022/02/15 09:08:46;;;;;;;1999.90;999.90;;;;;;;7.12;86.90;164294.88;5029820;28;20049;-68
2022/02/15 09:11:12;;;;;;;1999.90;999.90;;;;;;;6.78;88.13;164204.19;5014026;28;20135;-68
2022/02/15 09:13:39;;;;;;;1999.90;999.90;;;;;;;6.49;89.20;164127.22;5019056;28;20077;-68
2022/02/15 09:16:05;;;;;;;1999.90;999.90;;;;;;;6.79;88.45;164206.91;5018802;28;20500;-68
2022/02/15 09:18:32;;;;;;;1999.90;999.90;;;;;;;7.08;87.40;164283.88;5014346;28;20081;-68
2022/02/15 09:20:58;;;;;;;1999.90;999.90;;;;;;;7.42;86.59;164375.94;5021391;28;20041;-68
2022/02/15 09:23:25;;;;;;;1999.90;999.90;;;;;;;7.18;87.15;164311.34;5026375;28;20509;-68
2022/02/15 09:25:52;;;;;;;1999.90;999.90;;;;;;;7.20;87.18;164316.84;5021568;28;20401;-69
2022/02/15 09:28:19;;;;;;;1999.90;999.90;;;;;;;7.60;85.16;164422.66;5022407;28;20081;-69
2022/02/15 09:30:48;;;;;;;1999.90;999.90;;;;;;;7.48;85.88;164391.06;5027700;28;20095;-69
2022/02/15 09:33:14;;;;;;;1999.90;999.90;;;;;;;7.83;85.17;164484.50;5026307;28;20042;-69
2022/02/15 09:36:01;;;;;;;1999.90;999.90;;;;;;;7.63;86.00;164432.28;5026629;28;20172;-68
2022/02/15 09:38:27;;;;;;;1999.90;999.90;;;;;;;8.22;83.90;164590.38;5029865;28;20069;-68
2022/02/15 09:40:56;;;;;;;1999.90;999.90;;;;;;;8.76;81.06;164734.84;5018556;28;20049;-69
2022/02/15 09:43:23;;;;;;;1999.90;999.90;;;;;;;8.67;81.12;164708.72;5025185;28;20115;-69
2022/02/15 09:45:49;;;;;;;1999.90;999.90;;;;;;;8.22;82.50;164589.03;5023065;28;20056;-69
2022/02/15 09:48:18;;;;;;;1999.90;999.90;;;;;;;8.19;82.22;164580.78;5017532;28;20080;-69
2022/02/15 09:50:45;;;;;;;1999.90;999.90;;;;;;;8.13;83.26;164565.66;5015734;28;20443;-68
2022/02/15 09:53:13;;;;;;;1999.90;999.90;;;;;;;7.96;83.37;164518.88;5021807;28;20131;-69
2022/02/15 09:55:39;;;;;;;1999.90;999.90;;;;;;;7.70;84.75;164451.53;5013187;28;20050;-69
2022/02/15 09:58:06;;;;;;;1999.90;999.90;;;;;;;8.55;82.53;164677.09;5027392;28;20426;-68
2022/02/15 10:00:32;;;;;;;1999.90;999.90;;;;;;;8.88;81.21;164766.47;5021688;28;20431;-67
2022/02/15 10:03:01;;;;;;;1999.90;999.90;;;;;;;8.64;81.52;164703.19;5025473;28;20107;-67
2022/02/15 10:05:33;;;;;;;1999.90;999.90;;;;;;;8.45;82.09;164652.28;5028604;28;20382;-67
2022/02/15 10:08:00;;;;;;;1999.90;999.90;;;;;;;8.74;81.42;164729.34;5021583;28;20141;-67
2022/02/15 10:10:33;;;;;;;1999.90;999.90;;;;;;;8.99;80.81;164795.34;5014040;28;20107;-67
2022/02/15 10:13:08;;;;;;;1999.90;999.90;;;;;;;9.10;79.94;164825.63;5020673;28;20397;-67
2022/02/15 10:15:40;;;;;;;1999.90;999.90;;;;;;;9.22;79.93;164855.94;5014759;28;20054;-68
2022/02/15 10:18:28;;;;;;;1999.90;999.90;;;;;;;8.93;80.32;164778.84;5019285;28;20458;-68
2022/02/15 10:20:57;;;;;;;1999.90;999.90;;;;;;;9.20;79.17;164850.41;5018345;28;20050;-68
2022/02/15 10:23:29;;;;;;;1999.90;999.90;;;;;;;8.85;80.12;164758.22;5018198;28;20767;-68
2022/02/15 10:25:56;;;;;;;1999.90;999.90;;;;;;;8.74;80.25;164729.34;5020743;28;20456;-67
2022/02/15 10:28:25;;;;;;;1999.90;999.90;;;;;;;9.10;79.91;164825.63;5013684;28;20080;-68
2022/02/15 10:30:54;;;;;;;1999.90;999.90;;;;;;;9.28;79.63;164872.44;5026030;28;20049;-67
2022/02/15 10:33:28;;;;;;;1999.90;999.90;;;;;;;10.67;75.33;165245.53;5025894;28;20072;-68
2022/02/15 10:36:00;;;;;;;1999.90;999.90;;;;;;;10.12;75.86;165098.13;5013878;28;20049;-68
2022/02/15 10:38:49;;;;;;;1999.90;999.90;;;;;;;9.62;77.03;164963.28;5022842;28;20045;-68
2022/02/15 10:41:19;;;;;;;1999.90;999.90;;;;;;;9.90;76.40;165037.56;5018183;28;20132;-68
2022/02/15 10:43:50;;;;;;;1999.90;999.90;;;;;;;10.25;75.70;165131.22;5020396;28;20045;-68
2022/02/15 10:46:19;;;;;;;1999.90;999.90;;;;;;;10.03;75.79;165074.78;5019247;28;20136;-68
2022/02/15 10:48:47;;;;;;;1999.90;999.90;;;;;;;9.74;77.20;164996.28;5022631;28;20116;-68
2022/02/15 10:51:14;;;;;;;1999.90;999.90;;;;;;;9.53;77.24;164939.88;5024345;28;20053;-68
2022/02/15 10:53:58;;;;;;;1999.90;999.90;;;;;;;9.05;78.66;164811.91;5023383;28;20049;-68
2022/02/15 10:56:32;;;;;;;1999.90;999.90;;;;;;;9.33;78.21;164886.19;5014000;28;20056;-68
2022/02/15 10:59:05;;;;;;;1999.90;999.90;;;;;;;9.33;77.90;164887.59;5025151;28;20068;-69
2022/02/15 11:01:33;;;;;;;1999.90;999.90;;;;;;;10.18;76.27;165114.69;5019557;28;20053;-68